sensor_id;sensor_type;location;lat;lon;timestamp;P1;durP1;ratioP1;P2;durP2;ratioP2
45043;SDS011;30784;48.490;9.688;2023-12-22T00:02:06;2.90;;;0.50;;
45043;SDS011;30784;48.490;9.688;2023-12-22T00:04:32;1.73;;;0.38;;
45043;SDS011;30784;48.490;9.688;2023-12-22T00:06:57;1.83;;;0.35;;
45043;SDS011;30784;48.490;9.688;2023-12-22T00:09:23;1.15;;;0.25;;
45043;SDS011;30784;48.490;9.688;2023-12-22T00:11:48;2.72;;;0.40;;
45043;SDS011;30784;48.490;9.688;2023-12-22T00:14:14;2.20;;;0.40;;
45043;SDS011;30784;48.490;9.688;2023-12-22T00:16:39;4.03;;;1.20;;
45043;SDS011;30784;48.490;9.688;2023-12-22T00:19:05;3.83;;;0.90;;
45043;SDS011;30784;48.490;9.688;2023-12-22T00:21:30;3.33;;;0.63;;
45043;SDS011;30784;48.490;9.688;2023-12-22T00:23:56;2.47;;;0.80;;
45043;SDS011;30784;48.490;9.688;2023-12-22T00:26:22;2.03;;;0.40;;
45043;SDS011;30784;48.490;9.688;2023-12-22T00:28:48;1.73;;;0.45;;
45043;SDS011;30784;48.490;9.688;2023-12-22T00:31:13;1.90;;;0.32;;
45043;SDS011;30784;48.490;9.688;2023-12-22T00:33:39;5.07;;;1.40;;
45043;SDS011;30784;48.490;9.688;2023-12-22T00:36:05;7.50;;;2.50;;
45043;SDS011;30784;48.490;9.688;2023-12-22T00:38:30;4.00;;;1.20;;
45043;SDS011;30784;48.490;9.688;2023-12-22T00:40:56;4.25;;;0.80;;
45043;SDS011;30784;48.490;9.688;2023-12-22T00:43:22;3.33;;;0.63;;
45043;SDS011;30784;48.490;9.688;2023-12-22T00:45:47;3.67;;;0.88;;
45043;SDS011;30784;48.490;9.688;2023-12-22T00:48:13;4.35;;;0.77;;
45043;SDS011;30784;48.490;9.688;2023-12-22T00:50:38;6.32;;;1.00;;
45043;SDS011;30784;48.490;9.688;2023-12-22T00:53:04;5.95;;;1.50;;
45043;SDS011;30784;48.490;9.688;2023-12-22T00:55:29;5.40;;;1.10;;
45043;SDS011;30784;48.490;9.688;2023-12-22T00:57:55;5.97;;;1.13;;
45043;SDS011;30784;48.490;9.688;2023-12-22T01:00:20;4.68;;;0.95;;
45043;SDS011;30784;48.490;9.688;2023-12-22T01:02:46;4.93;;;1.15;;
45043;SDS011;30784;48.490;9.688;2023-12-22T01:05:11;5.70;;;1.20;;
45043;SDS011;30784;48.490;9.688;2023-12-22T01:07:37;6.47;;;1.05;;
45043;SDS011;30784;48.490;9.688;2023-12-22T01:10:02;7.85;;;1.60;;
45043;SDS011;30784;48.490;9.688;2023-12-22T01:12:29;7.25;;;1.35;;
45043;SDS011;30784;48.490;9.688;2023-12-22T01:14:58;5.28;;;1.10;;
45043;SDS011;30784;48.490;9.688;2023-12-22T01:17:23;7.57;;;1.23;;
45043;SDS011;30784;48.490;9.688;2023-12-22T01:19:49;6.15;;;1.10;;
45043;SDS011;30784;48.490;9.688;2023-12-22T01:22:15;6.40;;;1.40;;
45043;SDS011;30784;48.490;9.688;2023-12-22T01:24:41;6.32;;;1.30;;
45043;SDS011;30784;48.490;9.688;2023-12-22T01:27:08;7.57;;;1.35;;
45043;SDS011;30784;48.490;9.688;2023-12-22T01:29:35;8.35;;;1.45;;
45043;SDS011;30784;48.490;9.688;2023-12-22T01:32:00;6.00;;;1.35;;
45043;SDS011;30784;48.490;9.688;2023-12-22T01:34:26;6.35;;;1.23;;
45043;SDS011;30784;48.490;9.688;2023-12-22T01:36:51;5.95;;;1.10;;
45043;SDS011;30784;48.490;9.688;2023-12-22T01:39:17;8.50;;;1.30;;
45043;SDS011;30784;48.490;9.688;2023-12-22T01:41:42;7.18;;;1.52;;
45043;SDS011;30784;48.490;9.688;2023-12-22T01:44:08;6.20;;;1.13;;
45043;SDS011;30784;48.490;9.688;2023-12-22T01:46:33;7.60;;;1.33;;
45043;SDS011;30784;48.490;9.688;2023-12-22T01:49:00;7.60;;;1.20;;
45043;SDS011;30784;48.490;9.688;2023-12-22T01:51:27;7.30;;;1.20;;
45043;SDS011;30784;48.490;9.688;2023-12-22T01:53:57;6.72;;;1.15;;
45043;SDS011;30784;48.490;9.688;2023-12-22T01:56:23;6.25;;;1.10;;
45043;SDS011;30784;48.490;9.688;2023-12-22T01:58:50;7.40;;;1.40;;
45043;SDS011;30784;48.490;9.688;2023-12-22T02:01:18;7.38;;;1.42;;
45043;SDS011;30784;48.490;9.688;2023-12-22T02:03:45;5.40;;;1.30;;
45043;SDS011;30784;48.490;9.688;2023-12-22T02:06:11;7.20;;;1.25;;
45043;SDS011;30784;48.490;9.688;2023-12-22T02:08:37;5.18;;;1.20;;
45043;SDS011;30784;48.490;9.688;2023-12-22T02:11:03;4.88;;;0.80;;
45043;SDS011;30784;48.490;9.688;2023-12-22T02:13:29;3.88;;;0.80;;
45043;SDS011;30784;48.490;9.688;2023-12-22T02:15:56;3.35;;;0.70;;
45043;SDS011;30784;48.490;9.688;2023-12-22T02:18:31;3.78;;;0.73;;
45043;SDS011;30784;48.490;9.688;2023-12-22T02:21:00;4.20;;;0.55;;
45043;SDS011;30784;48.490;9.688;2023-12-22T02:23:25;3.80;;;0.60;;
45043;SDS011;30784;48.490;9.688;2023-12-22T02:25:52;2.42;;;0.47;;
45043;SDS011;30784;48.490;9.688;2023-12-22T02:28:27;1.48;;;0.40;;
45043;SDS011;30784;48.490;9.688;2023-12-22T02:31:04;3.33;;;0.63;;
45043;SDS011;30784;48.490;9.688;2023-12-22T02:33:31;3.55;;;0.50;;
45043;SDS011;30784;48.490;9.688;2023-12-22T02:36:02;2.78;;;0.43;;
45043;SDS011;30784;48.490;9.688;2023-12-22T02:38:29;3.22;;;0.60;;
45043;SDS011;30784;48.490;9.688;2023-12-22T02:40:56;2.45;;;0.50;;
45043;SDS011;30784;48.490;9.688;2023-12-22T02:43:22;2.97;;;0.50;;
45043;SDS011;30784;48.490;9.688;2023-12-22T02:45:51;2.08;;;0.30;;
45043;SDS011;30784;48.490;9.688;2023-12-22T02:48:16;1.88;;;0.43;;
45043;SDS011;30784;48.490;9.688;2023-12-22T02:50:42;2.72;;;0.70;;
45043;SDS011;30784;48.490;9.688;2023-12-22T02:53:08;3.17;;;0.57;;
45043;SDS011;30784;48.490;9.688;2023-12-22T02:55:33;2.58;;;0.43;;
45043;SDS011;30784;48.490;9.688;2023-12-22T02:57:59;1.65;;;0.40;;
45043;SDS011;30784;48.490;9.688;2023-12-22T03:00:24;3.55;;;0.50;;
45043;SDS011;30784;48.490;9.688;2023-12-22T03:02:50;2.00;;;0.43;;
45043;SDS011;30784;48.490;9.688;2023-12-22T03:05:15;3.22;;;0.50;;
45043;SDS011;30784;48.490;9.688;2023-12-22T03:07:41;3.28;;;0.40;;
45043;SDS011;30784;48.490;9.688;2023-12-22T03:10:06;4.25;;;0.50;;
45043;SDS011;30784;48.490;9.688;2023-12-22T03:12:32;2.78;;;0.65;;
45043;SDS011;30784;48.490;9.688;2023-12-22T03:14:57;4.90;;;0.90;;
45043;SDS011;30784;48.490;9.688;2023-12-22T03:17:23;4.72;;;0.95;;
45043;SDS011;30784;48.490;9.688;2023-12-22T03:19:48;7.28;;;1.00;;
45043;SDS011;30784;48.490;9.688;2023-12-22T03:22:14;3.45;;;0.55;;
45043;SDS011;30784;48.490;9.688;2023-12-22T03:24:39;4.85;;;0.80;;
45043;SDS011;30784;48.490;9.688;2023-12-22T03:27:05;6.28;;;0.80;;
45043;SDS011;30784;48.490;9.688;2023-12-22T03:29:31;5.40;;;1.02;;
45043;SDS011;30784;48.490;9.688;2023-12-22T03:31:56;5.07;;;0.65;;
45043;SDS011;30784;48.490;9.688;2023-12-22T03:34:21;6.50;;;0.75;;
45043;SDS011;30784;48.490;9.688;2023-12-22T03:36:47;4.75;;;0.90;;
45043;SDS011;30784;48.490;9.688;2023-12-22T03:39:14;3.97;;;0.80;;
45043;SDS011;30784;48.490;9.688;2023-12-22T03:41:42;5.05;;;0.75;;
45043;SDS011;30784;48.490;9.688;2023-12-22T03:44:08;3.97;;;0.70;;
45043;SDS011;30784;48.490;9.688;2023-12-22T03:46:33;3.50;;;0.80;;
45043;SDS011;30784;48.490;9.688;2023-12-22T03:48:59;6.40;;;0.80;;
45043;SDS011;30784;48.490;9.688;2023-12-22T03:51:25;4.47;;;0.70;;
45043;SDS011;30784;48.490;9.688;2023-12-22T03:53:50;4.93;;;0.68;;
45043;SDS011;30784;48.490;9.688;2023-12-22T03:56:16;3.45;;;0.73;;
45043;SDS011;30784;48.490;9.688;2023-12-22T03:58:41;4.40;;;0.47;;
45043;SDS011;30784;48.490;9.688;2023-12-22T04:01:07;4.47;;;0.60;;
45043;SDS011;30784;48.490;9.688;2023-12-22T04:03:33;3.58;;;0.60;;
45043;SDS011;30784;48.490;9.688;2023-12-22T04:06:01;3.20;;;0.50;;
45043;SDS011;30784;48.490;9.688;2023-12-22T04:08:29;1.60;;;0.43;;
45043;SDS011;30784;48.490;9.688;2023-12-22T04:10:55;4.10;;;0.52;;
45043;SDS011;30784;48.490;9.688;2023-12-22T04:13:21;2.22;;;0.50;;
45043;SDS011;30784;48.490;9.688;2023-12-22T04:15:46;4.97;;;0.57;;
45043;SDS011;30784;48.490;9.688;2023-12-22T04:18:12;5.05;;;0.70;;
45043;SDS011;30784;48.490;9.688;2023-12-22T04:20:37;6.15;;;0.52;;
45043;SDS011;30784;48.490;9.688;2023-12-22T04:23:03;4.38;;;0.50;;
45043;SDS011;30784;48.490;9.688;2023-12-22T04:25:28;3.70;;;0.52;;
45043;SDS011;30784;48.490;9.688;2023-12-22T04:27:54;3.10;;;0.60;;
45043;SDS011;30784;48.490;9.688;2023-12-22T04:30:19;4.35;;;0.90;;
45043;SDS011;30784;48.490;9.688;2023-12-22T04:32:45;4.15;;;0.65;;
45043;SDS011;30784;48.490;9.688;2023-12-22T04:35:10;3.55;;;0.60;;
45043;SDS011;30784;48.490;9.688;2023-12-22T04:37:36;4.18;;;0.60;;
45043;SDS011;30784;48.490;9.688;2023-12-22T04:40:01;4.70;;;0.80;;
45043;SDS011;30784;48.490;9.688;2023-12-22T04:42:27;4.97;;;0.90;;
45043;SDS011;30784;48.490;9.688;2023-12-22T04:44:53;6.22;;;0.70;;
45043;SDS011;30784;48.490;9.688;2023-12-22T04:47:19;5.80;;;0.88;;
45043;SDS011;30784;48.490;9.688;2023-12-22T04:49:44;3.65;;;0.75;;
45043;SDS011;30784;48.490;9.688;2023-12-22T04:52:10;6.28;;;1.00;;
45043;SDS011;30784;48.490;9.688;2023-12-22T04:54:36;5.20;;;0.80;;
45043;SDS011;30784;48.490;9.688;2023-12-22T04:57:02;7.07;;;0.82;;
45043;SDS011;30784;48.490;9.688;2023-12-22T04:59:28;4.97;;;0.80;;
45043;SDS011;30784;48.490;9.688;2023-12-22T05:01:53;6.43;;;1.00;;
45043;SDS011;30784;48.490;9.688;2023-12-22T05:04:19;4.03;;;0.80;;
45043;SDS011;30784;48.490;9.688;2023-12-22T05:06:45;8.40;;;1.00;;
45043;SDS011;30784;48.490;9.688;2023-12-22T05:09:10;7.35;;;0.90;;
45043;SDS011;30784;48.490;9.688;2023-12-22T05:11:37;6.28;;;0.68;;
45043;SDS011;30784;48.490;9.688;2023-12-22T05:14:02;4.57;;;0.75;;
45043;SDS011;30784;48.490;9.688;2023-12-22T05:16:28;4.90;;;0.75;;
45043;SDS011;30784;48.490;9.688;2023-12-22T05:18:56;7.82;;;1.20;;
45043;SDS011;30784;48.490;9.688;2023-12-22T05:21:24;7.63;;;1.10;;
45043;SDS011;30784;48.490;9.688;2023-12-22T05:23:50;4.20;;;0.88;;
45043;SDS011;30784;48.490;9.688;2023-12-22T05:26:16;6.07;;;0.88;;
45043;SDS011;30784;48.490;9.688;2023-12-22T05:28:45;7.85;;;1.05;;
45043;SDS011;30784;48.490;9.688;2023-12-22T05:31:11;8.68;;;1.10;;
45043;SDS011;30784;48.490;9.688;2023-12-22T05:33:37;6.50;;;0.93;;
45043;SDS011;30784;48.490;9.688;2023-12-22T05:36:03;6.38;;;1.45;;
45043;SDS011;30784;48.490;9.688;2023-12-22T05:38:28;3.35;;;0.60;;
45043;SDS011;30784;48.490;9.688;2023-12-22T05:40:54;7.13;;;1.00;;
45043;SDS011;30784;48.490;9.688;2023-12-22T05:43:19;5.75;;;0.93;;
45043;SDS011;30784;48.490;9.688;2023-12-22T05:45:45;6.20;;;1.27;;
45043;SDS011;30784;48.490;9.688;2023-12-22T05:48:10;8.43;;;1.05;;
45043;SDS011;30784;48.490;9.688;2023-12-22T05:50:36;7.85;;;1.00;;
45043;SDS011;30784;48.490;9.688;2023-12-22T05:53:02;7.53;;;1.67;;
45043;SDS011;30784;48.490;9.688;2023-12-22T05:55:27;7.90;;;1.45;;
45043;SDS011;30784;48.490;9.688;2023-12-22T05:57:54;6.40;;;1.10;;
45043;SDS011;30784;48.490;9.688;2023-12-22T06:00:20;7.03;;;1.35;;
45043;SDS011;30784;48.490;9.688;2023-12-22T06:02:46;7.60;;;1.30;;
45043;SDS011;30784;48.490;9.688;2023-12-22T06:05:11;6.90;;;1.30;;
45043;SDS011;30784;48.490;9.688;2023-12-22T06:07:37;9.30;;;1.45;;
45043;SDS011;30784;48.490;9.688;2023-12-22T06:10:03;8.65;;;1.33;;
45043;SDS011;30784;48.490;9.688;2023-12-22T06:12:29;9.13;;;1.67;;
45043;SDS011;30784;48.490;9.688;2023-12-22T06:14:54;8.00;;;1.50;;
45043;SDS011;30784;48.490;9.688;2023-12-22T06:17:20;7.70;;;1.33;;
45043;SDS011;30784;48.490;9.688;2023-12-22T06:19:45;8.60;;;1.27;;
45043;SDS011;30784;48.490;9.688;2023-12-22T06:22:11;8.50;;;1.30;;
45043;SDS011;30784;48.490;9.688;2023-12-22T06:24:36;11.55;;;1.30;;
45043;SDS011;30784;48.490;9.688;2023-12-22T06:27:02;8.10;;;1.50;;
45043;SDS011;30784;48.490;9.688;2023-12-22T06:29:27;9.48;;;1.42;;
45043;SDS011;30784;48.490;9.688;2023-12-22T06:31:53;6.47;;;1.33;;
45043;SDS011;30784;48.490;9.688;2023-12-22T06:34:18;9.55;;;1.50;;
45043;SDS011;30784;48.490;9.688;2023-12-22T06:36:44;8.68;;;1.35;;
45043;SDS011;30784;48.490;9.688;2023-12-22T06:39:09;7.53;;;1.10;;
45043;SDS011;30784;48.490;9.688;2023-12-22T06:41:35;10.45;;;1.17;;
45043;SDS011;30784;48.490;9.688;2023-12-22T06:44:00;10.48;;;1.40;;
45043;SDS011;30784;48.490;9.688;2023-12-22T06:46:26;9.18;;;1.40;;
45043;SDS011;30784;48.490;9.688;2023-12-22T06:48:53;9.43;;;1.60;;
45043;SDS011;30784;48.490;9.688;2023-12-22T06:51:27;7.50;;;1.20;;
45043;SDS011;30784;48.490;9.688;2023-12-22T06:53:57;7.15;;;1.30;;
45043;SDS011;30784;48.490;9.688;2023-12-22T06:56:25;9.05;;;1.15;;
45043;SDS011;30784;48.490;9.688;2023-12-22T06:58:52;8.65;;;1.48;;
45043;SDS011;30784;48.490;9.688;2023-12-22T07:01:33;8.05;;;1.30;;
45043;SDS011;30784;48.490;9.688;2023-12-22T07:04:00;8.53;;;1.40;;
45043;SDS011;30784;48.490;9.688;2023-12-22T07:06:28;6.85;;;1.05;;
45043;SDS011;30784;48.490;9.688;2023-12-22T07:11:39;5.55;;;0.93;;
45043;SDS011;30784;48.490;9.688;2023-12-22T07:14:05;7.75;;;1.02;;
45043;SDS011;30784;48.490;9.688;2023-12-22T07:16:31;7.28;;;0.90;;
45043;SDS011;30784;48.490;9.688;2023-12-22T07:18:57;5.20;;;0.98;;
45043;SDS011;30784;48.490;9.688;2023-12-22T07:21:23;5.45;;;0.70;;
45043;SDS011;30784;48.490;9.688;2023-12-22T07:23:49;6.55;;;0.95;;
45043;SDS011;30784;48.490;9.688;2023-12-22T07:26:14;5.35;;;1.08;;
45043;SDS011;30784;48.490;9.688;2023-12-22T07:28:40;6.35;;;1.00;;
45043;SDS011;30784;48.490;9.688;2023-12-22T07:31:05;5.15;;;1.00;;
45043;SDS011;30784;48.490;9.688;2023-12-22T07:33:31;6.22;;;1.05;;
45043;SDS011;30784;48.490;9.688;2023-12-22T07:35:56;7.68;;;1.20;;
45043;SDS011;30784;48.490;9.688;2023-12-22T07:38:22;8.75;;;1.48;;
45043;SDS011;30784;48.490;9.688;2023-12-22T07:40:48;9.65;;;1.58;;
45043;SDS011;30784;48.490;9.688;2023-12-22T07:43:14;9.00;;;1.30;;
45043;SDS011;30784;48.490;9.688;2023-12-22T07:45:40;9.38;;;1.35;;
45043;SDS011;30784;48.490;9.688;2023-12-22T07:48:06;11.90;;;3.00;;
45043;SDS011;30784;48.490;9.688;2023-12-22T07:50:32;13.23;;;2.88;;
45043;SDS011;30784;48.490;9.688;2023-12-22T07:52:57;8.77;;;2.25;;
45043;SDS011;30784;48.490;9.688;2023-12-22T07:55:23;10.50;;;1.80;;
45043;SDS011;30784;48.490;9.688;2023-12-22T07:57:49;7.38;;;1.65;;
45043;SDS011;30784;48.490;9.688;2023-12-22T08:00:15;7.90;;;1.40;;
45043;SDS011;30784;48.490;9.688;2023-12-22T08:02:42;9.07;;;1.70;;
45043;SDS011;30784;48.490;9.688;2023-12-22T08:05:07;11.70;;;3.60;;
45043;SDS011;30784;48.490;9.688;2023-12-22T08:07:33;10.65;;;2.30;;
45043;SDS011;30784;48.490;9.688;2023-12-22T08:09:58;9.93;;;2.28;;
45043;SDS011;30784;48.490;9.688;2023-12-22T08:12:24;10.45;;;1.92;;
45043;SDS011;30784;48.490;9.688;2023-12-22T08:14:49;9.70;;;1.58;;
45043;SDS011;30784;48.490;9.688;2023-12-22T08:17:15;9.68;;;2.00;;
45043;SDS011;30784;48.490;9.688;2023-12-22T08:19:40;9.43;;;2.10;;
45043;SDS011;30784;48.490;9.688;2023-12-22T08:22:09;9.30;;;2.10;;
45043;SDS011;30784;48.490;9.688;2023-12-22T08:24:35;10.25;;;3.42;;
45043;SDS011;30784;48.490;9.688;2023-12-22T08:27:01;9.93;;;2.20;;
45043;SDS011;30784;48.490;9.688;2023-12-22T08:29:26;9.57;;;1.73;;
45043;SDS011;30784;48.490;9.688;2023-12-22T08:31:52;7.78;;;1.35;;
45043;SDS011;30784;48.490;9.688;2023-12-22T08:34:18;8.18;;;1.67;;
45043;SDS011;30784;48.490;9.688;2023-12-22T08:36:44;9.02;;;1.80;;
45043;SDS011;30784;48.490;9.688;2023-12-22T08:39:09;10.88;;;1.83;;
45043;SDS011;30784;48.490;9.688;2023-12-22T08:41:35;8.10;;;1.55;;
45043;SDS011;30784;48.490;9.688;2023-12-22T08:44:02;9.35;;;1.90;;
45043;SDS011;30784;48.490;9.688;2023-12-22T08:46:29;10.85;;;1.75;;
45043;SDS011;30784;48.490;9.688;2023-12-22T08:48:55;16.92;;;5.47;;
45043;SDS011;30784;48.490;9.688;2023-12-22T08:51:21;16.80;;;4.97;;
45043;SDS011;30784;48.490;9.688;2023-12-22T08:53:47;12.95;;;3.90;;
45043;SDS011;30784;48.490;9.688;2023-12-22T08:56:15;11.88;;;3.65;;
45043;SDS011;30784;48.490;9.688;2023-12-22T08:58:42;12.90;;;2.55;;
45043;SDS011;30784;48.490;9.688;2023-12-22T09:01:07;11.63;;;2.28;;
45043;SDS011;30784;48.490;9.688;2023-12-22T09:03:33;11.10;;;2.38;;
45043;SDS011;30784;48.490;9.688;2023-12-22T09:06:00;11.00;;;3.08;;
45043;SDS011;30784;48.490;9.688;2023-12-22T09:08:26;6.30;;;1.60;;
45043;SDS011;30784;48.490;9.688;2023-12-22T09:10:52;8.73;;;2.40;;
45043;SDS011;30784;48.490;9.688;2023-12-22T09:13:18;12.77;;;3.88;;
45043;SDS011;30784;48.490;9.688;2023-12-22T09:15:43;9.98;;;2.70;;
45043;SDS011;30784;48.490;9.688;2023-12-22T09:18:11;10.05;;;2.08;;
45043;SDS011;30784;48.490;9.688;2023-12-22T09:20:38;9.50;;;2.15;;
45043;SDS011;30784;48.490;9.688;2023-12-22T09:23:04;10.85;;;2.28;;
45043;SDS011;30784;48.490;9.688;2023-12-22T09:25:33;9.07;;;1.80;;
45043;SDS011;30784;48.490;9.688;2023-12-22T09:27:58;8.30;;;1.60;;
45043;SDS011;30784;48.490;9.688;2023-12-22T09:30:24;7.80;;;1.35;;
45043;SDS011;30784;48.490;9.688;2023-12-22T09:32:49;9.93;;;1.63;;
45043;SDS011;30784;48.490;9.688;2023-12-22T09:35:16;10.73;;;1.45;;
45043;SDS011;30784;48.490;9.688;2023-12-22T09:37:42;8.00;;;1.30;;
45043;SDS011;30784;48.490;9.688;2023-12-22T09:40:08;9.32;;;1.63;;
45043;SDS011;30784;48.490;9.688;2023-12-22T09:42:35;7.72;;;1.40;;
45043;SDS011;30784;48.490;9.688;2023-12-22T09:45:02;9.20;;;1.55;;
45043;SDS011;30784;48.490;9.688;2023-12-22T09:47:28;7.60;;;1.35;;
45043;SDS011;30784;48.490;9.688;2023-12-22T09:49:57;7.95;;;1.23;;
45043;SDS011;30784;48.490;9.688;2023-12-22T09:52:23;7.72;;;1.15;;
45043;SDS011;30784;48.490;9.688;2023-12-22T09:54:49;6.07;;;1.10;;
45043;SDS011;30784;48.490;9.688;2023-12-22T09:57:15;6.03;;;1.05;;
45043;SDS011;30784;48.490;9.688;2023-12-22T09:59:41;6.22;;;1.48;;
45043;SDS011;30784;48.490;9.688;2023-12-22T10:02:07;11.27;;;1.50;;
45043;SDS011;30784;48.490;9.688;2023-12-22T10:04:33;9.32;;;1.30;;
45043;SDS011;30784;48.490;9.688;2023-12-22T10:06:59;10.90;;;1.40;;
45043;SDS011;30784;48.490;9.688;2023-12-22T10:09:26;7.60;;;1.10;;
45043;SDS011;30784;48.490;9.688;2023-12-22T10:11:52;9.00;;;1.58;;
45043;SDS011;30784;48.490;9.688;2023-12-22T10:14:18;10.23;;;1.90;;
45043;SDS011;30784;48.490;9.688;2023-12-22T10:16:48;8.93;;;2.15;;
45043;SDS011;30784;48.490;9.688;2023-12-22T10:19:14;9.55;;;1.83;;
45043;SDS011;30784;48.490;9.688;2023-12-22T10:21:40;7.57;;;1.60;;
45043;SDS011;30784;48.490;9.688;2023-12-22T10:24:07;7.75;;;1.50;;
45043;SDS011;30784;48.490;9.688;2023-12-22T10:26:32;9.02;;;1.55;;
45043;SDS011;30784;48.490;9.688;2023-12-22T10:28:58;11.35;;;1.73;;
45043;SDS011;30784;48.490;9.688;2023-12-22T10:31:23;12.80;;;1.80;;
45043;SDS011;30784;48.490;9.688;2023-12-22T10:33:50;10.90;;;1.80;;
45043;SDS011;30784;48.490;9.688;2023-12-22T10:36:16;9.88;;;1.60;;
45043;SDS011;30784;48.490;9.688;2023-12-22T10:38:42;10.48;;;2.00;;
45043;SDS011;30784;48.490;9.688;2023-12-22T10:41:08;9.60;;;1.58;;
45043;SDS011;30784;48.490;9.688;2023-12-22T10:43:37;10.70;;;1.88;;
45043;SDS011;30784;48.490;9.688;2023-12-22T10:46:04;11.75;;;1.80;;
45043;SDS011;30784;48.490;9.688;2023-12-22T10:48:30;11.27;;;1.80;;
45043;SDS011;30784;48.490;9.688;2023-12-22T10:50:56;11.35;;;1.92;;
45043;SDS011;30784;48.490;9.688;2023-12-22T10:53:21;11.57;;;2.00;;
45043;SDS011;30784;48.490;9.688;2023-12-22T10:55:48;10.73;;;2.17;;
45043;SDS011;30784;48.490;9.688;2023-12-22T10:58:15;10.35;;;2.63;;
45043;SDS011;30784;48.490;9.688;2023-12-22T11:00:41;12.45;;;2.47;;
45043;SDS011;30784;48.490;9.688;2023-12-22T11:03:10;12.27;;;1.60;;
45043;SDS011;30784;48.490;9.688;2023-12-22T11:05:41;13.18;;;2.00;;
45043;SDS011;30784;48.490;9.688;2023-12-22T11:08:10;6.72;;;1.35;;
45043;SDS011;30784;48.490;9.688;2023-12-22T11:10:37;12.48;;;1.77;;
45043;SDS011;30784;48.490;9.688;2023-12-22T11:13:06;9.65;;;1.70;;
45043;SDS011;30784;48.490;9.688;2023-12-22T11:15:34;9.70;;;1.95;;
45043;SDS011;30784;48.490;9.688;2023-12-22T11:18:01;11.07;;;2.83;;
45043;SDS011;30784;48.490;9.688;2023-12-22T11:20:27;8.23;;;1.77;;
45043;SDS011;30784;48.490;9.688;2023-12-22T11:25:24;5.85;;;1.23;;
45043;SDS011;30784;48.490;9.688;2023-12-22T11:27:51;6.97;;;1.40;;
45043;SDS011;30784;48.490;9.688;2023-12-22T11:30:18;6.13;;;1.10;;
45043;SDS011;30784;48.490;9.688;2023-12-22T11:32:45;5.90;;;1.00;;
45043;SDS011;30784;48.490;9.688;2023-12-22T11:35:11;6.22;;;0.98;;
45043;SDS011;30784;48.490;9.688;2023-12-22T11:37:38;5.85;;;0.95;;
45043;SDS011;30784;48.490;9.688;2023-12-22T11:40:04;7.10;;;1.27;;
45043;SDS011;30784;48.490;9.688;2023-12-22T11:42:31;5.75;;;1.05;;
45043;SDS011;30784;48.490;9.688;2023-12-22T11:45:03;4.57;;;0.90;;
45043;SDS011;30784;48.490;9.688;2023-12-22T11:47:29;8.02;;;1.40;;
45043;SDS011;30784;48.490;9.688;2023-12-22T11:49:55;4.32;;;0.80;;
45043;SDS011;30784;48.490;9.688;2023-12-22T11:52:25;6.53;;;1.20;;
45043;SDS011;30784;48.490;9.688;2023-12-22T11:54:53;4.60;;;0.93;;
45043;SDS011;30784;48.490;9.688;2023-12-22T12:00:01;3.50;;;0.70;;
45043;SDS011;30784;48.490;9.688;2023-12-22T12:02:35;4.85;;;0.68;;
45043;SDS011;30784;48.490;9.688;2023-12-22T12:05:01;4.43;;;0.80;;
45043;SDS011;30784;48.490;9.688;2023-12-22T12:07:38;6.03;;;0.88;;
45043;SDS011;30784;48.490;9.688;2023-12-22T12:10:36;4.55;;;1.00;;
45043;SDS011;30784;48.490;9.688;2023-12-22T12:13:11;5.00;;;1.20;;
45043;SDS011;30784;48.490;9.688;2023-12-22T12:15:40;4.70;;;0.70;;
45043;SDS011;30784;48.490;9.688;2023-12-22T12:18:07;5.28;;;1.17;;
45043;SDS011;30784;48.490;9.688;2023-12-22T12:20:34;6.05;;;1.00;;
45043;SDS011;30784;48.490;9.688;2023-12-22T12:23:02;4.35;;;0.80;;
45043;SDS011;30784;48.490;9.688;2023-12-22T12:25:29;3.45;;;0.70;;
45043;SDS011;30784;48.490;9.688;2023-12-22T12:28:03;3.58;;;0.60;;
45043;SDS011;30784;48.490;9.688;2023-12-22T12:30:33;1.77;;;0.60;;
45043;SDS011;30784;48.490;9.688;2023-12-22T12:33:07;3.10;;;0.68;;
45043;SDS011;30784;48.490;9.688;2023-12-22T12:35:34;4.18;;;0.90;;
45043;SDS011;30784;48.490;9.688;2023-12-22T12:38:00;3.55;;;0.80;;
45043;SDS011;30784;48.490;9.688;2023-12-22T12:40:28;3.55;;;0.85;;
45043;SDS011;30784;48.490;9.688;2023-12-22T12:43:00;3.63;;;0.90;;
45043;SDS011;30784;48.490;9.688;2023-12-22T12:45:27;3.58;;;0.88;;
45043;SDS011;30784;48.490;9.688;2023-12-22T12:47:59;4.00;;;0.80;;
45043;SDS011;30784;48.490;9.688;2023-12-22T12:50:28;5.63;;;1.10;;
45043;SDS011;30784;48.490;9.688;2023-12-22T12:52:55;3.05;;;0.80;;
45043;SDS011;30784;48.490;9.688;2023-12-22T12:55:22;3.13;;;0.60;;
45043;SDS011;30784;48.490;9.688;2023-12-22T12:57:48;1.98;;;0.30;;
45043;SDS011;30784;48.490;9.688;2023-12-22T13:00:16;2.58;;;0.60;;
45043;SDS011;30784;48.490;9.688;2023-12-22T13:02:53;1.52;;;0.40;;
45043;SDS011;30784;48.490;9.688;2023-12-22T13:05:23;2.78;;;0.47;;
45043;SDS011;30784;48.490;9.688;2023-12-22T13:07:50;1.40;;;0.35;;
45043;SDS011;30784;48.490;9.688;2023-12-22T13:10:19;1.27;;;0.32;;
45043;SDS011;30784;48.490;9.688;2023-12-22T13:12:50;2.08;;;0.52;;
45043;SDS011;30784;48.490;9.688;2023-12-22T13:15:16;2.10;;;0.60;;
45043;SDS011;30784;48.490;9.688;2023-12-22T13:17:41;1.70;;;0.40;;
45043;SDS011;30784;48.490;9.688;2023-12-22T13:20:08;1.42;;;0.30;;
45043;SDS011;30784;48.490;9.688;2023-12-22T13:22:35;2.38;;;0.52;;
45043;SDS011;30784;48.490;9.688;2023-12-22T13:25:00;3.67;;;0.88;;
45043;SDS011;30784;48.490;9.688;2023-12-22T13:27:26;3.10;;;0.60;;
45043;SDS011;30784;48.490;9.688;2023-12-22T13:29:51;2.33;;;0.70;;
45043;SDS011;30784;48.490;9.688;2023-12-22T13:32:19;2.58;;;0.60;;
45043;SDS011;30784;48.490;9.688;2023-12-22T13:34:55;3.42;;;0.60;;
45043;SDS011;30784;48.490;9.688;2023-12-22T13:37:21;3.83;;;0.85;;
45043;SDS011;30784;48.490;9.688;2023-12-22T13:39:50;5.10;;;1.10;;
45043;SDS011;30784;48.490;9.688;2023-12-22T13:42:19;4.78;;;1.20;;
45043;SDS011;30784;48.490;9.688;2023-12-22T13:44:47;6.20;;;1.60;;
45043;SDS011;30784;48.490;9.688;2023-12-22T13:47:15;6.22;;;1.63;;
45043;SDS011;30784;48.490;9.688;2023-12-22T13:49:44;5.03;;;1.27;;
45043;SDS011;30784;48.490;9.688;2023-12-22T13:54:52;2.58;;;0.60;;
45043;SDS011;30784;48.490;9.688;2023-12-22T13:57:20;1.00;;;0.40;;
45043;SDS011;30784;48.490;9.688;2023-12-22T13:59:49;1.45;;;0.40;;
45043;SDS011;30784;48.490;9.688;2023-12-22T14:02:17;1.35;;;0.35;;
45043;SDS011;30784;48.490;9.688;2023-12-22T14:04:45;1.08;;;0.10;;
45043;SDS011;30784;48.490;9.688;2023-12-22T14:07:10;1.23;;;0.47;;
45043;SDS011;30784;48.490;9.688;2023-12-22T14:09:36;1.25;;;0.57;;
45043;SDS011;30784;48.490;9.688;2023-12-22T14:12:03;0.93;;;0.30;;
45043;SDS011;30784;48.490;9.688;2023-12-22T14:14:30;3.00;;;0.70;;
45043;SDS011;30784;48.490;9.688;2023-12-22T14:16:56;1.35;;;0.40;;
45043;SDS011;30784;48.490;9.688;2023-12-22T14:19:22;1.23;;;0.30;;
45043;SDS011;30784;48.490;9.688;2023-12-22T14:21:47;0.80;;;0.10;;
45043;SDS011;30784;48.490;9.688;2023-12-22T14:24:13;1.33;;;0.20;;
45043;SDS011;30784;48.490;9.688;2023-12-22T14:26:54;1.02;;;0.20;;
45043;SDS011;30784;48.490;9.688;2023-12-22T14:29:21;1.63;;;0.60;;
45043;SDS011;30784;48.490;9.688;2023-12-22T14:31:49;1.55;;;0.52;;
45043;SDS011;30784;48.490;9.688;2023-12-22T14:34:15;2.03;;;0.50;;
45043;SDS011;30784;48.490;9.688;2023-12-22T14:36:42;0.60;;;0.20;;
45043;SDS011;30784;48.490;9.688;2023-12-22T14:39:08;0.70;;;0.20;;
45043;SDS011;30784;48.490;9.688;2023-12-22T14:41:35;1.75;;;0.30;;
45043;SDS011;30784;48.490;9.688;2023-12-22T14:44:01;3.00;;;0.63;;
45043;SDS011;30784;48.490;9.688;2023-12-22T14:46:27;1.95;;;0.50;;
45043;SDS011;30784;48.490;9.688;2023-12-22T14:48:53;0.50;;;0.13;;
45043;SDS011;30784;48.490;9.688;2023-12-22T14:51:19;0.90;;;0.25;;
45043;SDS011;30784;48.490;9.688;2023-12-22T14:53:44;1.02;;;0.30;;